Time;durP1;ratioP1;P1;durP2;ratioP2;P2;SDS_P1;SDS_P2;PMS_P1;PMS_P2;Temp;Humidity;BMP_temperature;BMP_pressure;BME280_temperature;BME280_humidity;BME280_pressure;Samples;Min_cycle;Max_cycle;Signal;HPM_P1;HPM_P2
2023/07/07 00:01:07;;;;;;;3.67;1.40;;;17.80;99.90;;;;;;5009256;28;20065;-71
2023/07/07 00:03:34;;;;;;;3.30;1.17;;;17.80;99.90;;;;;;5009479;28;20128;-72
2023/07/07 00:06:01;;;;;;;2.65;1.23;;;17.80;99.90;;;;;;5009202;28;20088;-72
2023/07/07 00:08:27;;;;;;;4.60;1.30;;;17.90;99.90;;;;;;5009525;28;20033;-72
2023/07/07 00:10:53;;;;;;;3.63;1.50;;;17.90;99.90;;;;;;5008983;28;20077;-72
2023/07/07 00:13:20;;;;;;;2.33;1.10;;;18.00;99.90;;;;;;5009220;28;20051;-71
2023/07/07 00:15:46;;;;;;;2.65;1.55;;;17.90;99.90;;;;;;5009837;28;20498;-71
2023/07/07 00:18:27;;;;;;;3.45;1.73;;;18.00;99.90;;;;;;4992257;28;20036;-72
2023/07/07 00:20:59;;;;;;;2.92;1.45;;;18.00;99.90;;;;;;4992403;28;20033;-71
2023/07/07 00:23:26;;;;;;;4.13;1.50;;;17.90;99.90;;;;;;5009113;28;20062;-72
2023/07/07 00:26:07;;;;;;;3.40;1.40;;;17.90;99.90;;;;;;5007481;28;20600;-72
2023/07/07 00:28:34;;;;;;;3.58;1.63;;;17.90;99.90;;;;;;5004765;28;20037;-72
2023/07/07 00:31:00;;;;;;;1.45;0.90;;;17.90;99.90;;;;;;5008811;28;20042;-72
2023/07/07 00:33:27;;;;;;;2.92;1.55;;;17.90;99.90;;;;;;5009082;28;20026;-72
2023/07/07 00:35:53;;;;;;;2.05;1.27;;;17.90;99.90;;;;;;5008404;28;20152;-72
2023/07/07 00:38:20;;;;;;;2.00;1.20;;;17.90;99.90;;;;;;5009122;28;20060;-72
2023/07/07 00:40:46;;;;;;;2.30;1.05;;;18.00;99.70;;;;;;5008213;28;20033;-72
2023/07/07 00:43:18;;;;;;;4.28;1.50;;;17.90;99.70;;;;;;5009455;28;20493;-71
2023/07/07 00:45:45;;;;;;;3.38;1.23;;;17.80;99.90;;;;;;5029022;28;20042;-72
2023/07/07 00:48:16;;;;;;;2.85;1.30;;;17.80;99.90;;;;;;5013786;28;20026;-72
2023/07/07 00:51:37;;;;;;;4.15;1.20;;;17.80;99.90;;;;;;5013539;28;20555;-73
2023/07/07 00:54:16;;;;;;;3.97;1.25;;;17.80;99.90;;;;;;5005143;28;20085;-73
2023/07/07 00:56:49;;;;;;;3.55;1.40;;;17.70;99.90;;;;;;5011863;28;20034;-72
2023/07/07 00:59:26;;;;;;;3.42;1.40;;;17.60;99.90;;;;;;5013006;28;20106;-72
2023/07/07 01:01:58;;;;;;;6.00;1.20;;;17.50;99.90;;;;;;5011579;28;20042;-72
2023/07/07 01:04:25;;;;;;;3.45;1.83;;;17.50;99.90;;;;;;5002713;28;20030;-72
2023/07/07 01:07:05;;;;;;;3.88;1.35;;;17.70;99.90;;;;;;5003561;28;20119;-72
2023/07/07 01:09:31;;;;;;;3.78;1.33;;;17.70;99.90;;;;;;5006574;28;20032;-72
2023/07/07 01:11:58;;;;;;;3.35;1.40;;;17.70;99.90;;;;;;5012025;28;20120;-73
2023/07/07 01:14:29;;;;;;;5.18;1.30;;;17.60;99.90;;;;;;5012554;28;20116;-73
2023/07/07 01:17:28;;;;;;;2.42;1.10;;;17.70;99.90;;;;;;5010861;28;20133;-72
2023/07/07 01:20:19;;;;;;;2.67;1.10;;;17.70;99.90;;;;;;5013150;28;20044;-78
2023/07/07 01:23:36;;;;;;;3.13;1.48;;;17.70;99.90;;;;;;5009404;28;20037;-75
2023/07/07 01:26:29;;;;;;;5.28;1.83;;;17.90;99.90;;;;;;5002163;28;20034;-76
2023/07/07 01:29:21;;;;;;;6.97;1.67;;;17.90;99.90;;;;;;5006973;28;20046;-77
2023/07/07 01:32:09;;;;;;;3.80;1.55;;;17.80;99.90;;;;;;5001995;28;20402;-77
2023/07/07 01:34:36;;;;;;;2.33;1.38;;;17.80;99.90;;;;;;5002433;28;20362;-77
2023/07/07 01:37:02;;;;;;;3.38;1.60;;;17.70;99.90;;;;;;4992081;28;20036;-77
2023/07/07 01:39:28;;;;;;;5.10;1.92;;;17.60;99.90;;;;;;5006236;28;20038;-77
2023/07/07 01:42:09;;;;;;;4.10;2.03;;;17.50;99.90;;;;;;5011234;28;20041;-77
2023/07/07 01:45:02;;;;;;;2.90;1.65;;;17.50;99.90;;;;;;5005635;28;20061;-76
2023/07/07 01:47:38;;;;;;;3.30;1.67;;;17.50;99.90;;;;;;5006507;28;20061;-76
2023/07/07 01:50:15;;;;;;;2.38;1.35;;;17.40;99.90;;;;;;5006882;28;20038;-77
2023/07/07 01:52:54;;;;;;;3.50;1.30;;;17.40;99.90;;;;;;5008962;28;20026;-76
2023/07/07 01:55:47;;;;;;;2.78;1.52;;;17.00;99.90;;;;;;5007949;28;20539;-76
2023/07/07 01:58:15;;;;;;;2.35;1.42;;;17.00;99.90;;;;;;5012321;28;20274;-76
2023/07/07 02:00:42;;;;;;;5.32;2.05;;;16.90;99.90;;;;;;4991610;28;20100;-76
2023/07/07 02:03:10;;;;;;;2.83;1.20;;;16.90;99.90;;;;;;5011558;28;20030;-77
2023/07/07 02:05:37;;;;;;;7.47;2.20;;;16.90;99.90;;;;;;5009291;28;20032;-76
2023/07/07 02:08:04;;;;;;;4.13;1.77;;;16.80;99.90;;;;;;5013220;28;20045;-75
2023/07/07 02:10:30;;;;;;;2.90;1.40;;;16.80;99.90;;;;;;5008250;28;20037;-77
2023/07/07 02:12:55;;;;;;;2.80;1.10;;;16.70;99.90;;;;;;5011623;28;20113;-76
2023/07/07 02:15:21;;;;;;;4.40;2.13;;;16.70;99.90;;;;;;5008911;28;20038;-76
2023/07/07 02:17:48;;;;;;;2.78;1.35;;;16.60;99.90;;;;;;5011447;28;20034;-76
2023/07/07 02:20:14;;;;;;;1.98;1.20;;;16.70;99.90;;;;;;5007674;28;20045;-76
2023/07/07 02:22:40;;;;;;;3.35;1.33;;;16.60;99.90;;;;;;5011352;28;20559;-76
2023/07/07 02:25:07;;;;;;;4.25;1.98;;;16.60;99.90;;;;;;5007660;28;20064;-76
2023/07/07 02:27:33;;;;;;;5.47;1.45;;;16.60;99.90;;;;;;5011765;28;20030;-76
2023/07/07 02:29:59;;;;;;;2.50;1.08;;;16.60;99.90;;;;;;5009135;28;20595;-76
2023/07/07 02:32:25;;;;;;;5.03;1.63;;;16.60;99.90;;;;;;5011357;28;20037;-77
2023/07/07 02:34:55;;;;;;;3.67;1.80;;;16.60;99.90;;;;;;4994616;28;20524;-76
2023/07/07 02:37:21;;;;;;;4.65;1.52;;;16.50;99.90;;;;;;5004847;28;20036;-77
2023/07/07 02:39:47;;;;;;;8.80;1.88;;;16.50;99.90;;;;;;5008522;28;20060;-77
2023/07/07 02:42:14;;;;;;;2.33;1.52;;;16.50;99.90;;;;;;5012469;28;20125;-76
2023/07/07 02:44:40;;;;;;;2.40;1.25;;;16.40;99.90;;;;;;5007449;28;20048;-76
2023/07/07 02:47:08;;;;;;;2.70;1.38;;;16.40;99.90;;;;;;5008521;28;20113;-77
2023/07/07 02:49:34;;;;;;;4.30;1.40;;;16.30;99.90;;;;;;5002728;28;20030;-77
2023/07/07 02:52:00;;;;;;;2.72;1.45;;;16.30;99.90;;;;;;5004245;28;20030;-76
2023/07/07 02:54:26;;;;;;;2.45;1.20;;;16.20;99.90;;;;;;5001635;28;20144;-76
2023/07/07 02:56:53;;;;;;;3.50;1.42;;;16.20;99.90;;;;;;5005125;28;20762;-77
2023/07/07 02:59:19;;;;;;;3.63;1.65;;;16.20;99.90;;;;;;5010819;28;20030;-76
2023/07/07 03:01:45;;;;;;;3.03;1.60;;;16.20;99.90;;;;;;5007194;28;20038;-76
2023/07/07 03:04:12;;;;;;;2.22;1.00;;;16.30;99.90;;;;;;5009545;28;20041;-77
2023/07/07 03:06:39;;;;;;;3.88;2.10;;;16.30;99.90;;;;;;5007104;28;20036;-76
2023/07/07 03:09:06;;;;;;;3.08;1.40;;;16.20;99.90;;;;;;5009182;28;20034;-77
2023/07/07 03:11:32;;;;;;;1.92;1.05;;;16.20;99.90;;;;;;5008803;28;20457;-75
2023/07/07 03:13:59;;;;;;;3.55;1.55;;;16.20;99.90;;;;;;5007795;28;20041;-75
2023/07/07 03:16:31;;;;;;;3.67;1.70;;;16.20;99.90;;;;;;5010876;28;20500;-76
2023/07/07 03:19:03;;;;;;;2.97;1.00;;;16.20;99.90;;;;;;5007971;28;20029;-77
2023/07/07 03:21:31;;;;;;;2.92;1.50;;;16.10;99.90;;;;;;5008748;28;20034;-77
2023/07/07 03:23:58;;;;;;;2.55;1.27;;;16.20;99.90;;;;;;5008825;28;20116;-77
2023/07/07 03:26:27;;;;;;;7.80;1.20;;;16.10;99.90;;;;;;5010908;28;20422;-77
2023/07/07 03:28:53;;;;;;;3.50;1.52;;;16.10;99.90;;;;;;5007030;28;20398;-76
2023/07/07 03:31:26;;;;;;;4.45;1.38;;;16.00;99.90;;;;;;4993900;28;20120;-77
2023/07/07 03:33:56;;;;;;;2.75;1.25;;;16.00;99.90;;;;;;5006931;28;20033;-77
2023/07/07 03:36:26;;;;;;;4.68;1.38;;;16.00;99.90;;;;;;5007346;28;20062;-76
2023/07/07 03:38:52;;;;;;;4.90;1.70;;;16.00;99.90;;;;;;5007158;28;20045;-76
2023/07/07 03:41:21;;;;;;;2.83;1.58;;;16.00;99.90;;;;;;4991050;28;20451;-76
2023/07/07 03:43:48;;;;;;;6.45;1.75;;;16.00;99.90;;;;;;5005942;28;20045;-76
2023/07/07 03:46:20;;;;;;;4.13;1.30;;;16.00;99.90;;;;;;5010521;28;20107;-76
2023/07/07 03:48:48;;;;;;;4.50;1.50;;;16.00;99.90;;;;;;5005866;28;20520;-75
2023/07/07 03:51:17;;;;;;;5.80;1.70;;;16.00;99.90;;;;;;5011493;28;20034;-76
2023/07/07 03:53:43;;;;;;;2.17;1.23;;;16.00;99.90;;;;;;5025708;22;20122;-77
2023/07/07 03:56:09;;;;;;;3.05;1.60;;;16.00;99.90;;;;;;5047621;28;20045;-78
2023/07/07 03:58:35;;;;;;;2.15;0.90;;;16.00;99.90;;;;;;5049755;28;20072;-77
2023/07/07 04:01:07;;;;;;;5.95;1.80;;;15.90;99.90;;;;;;5043043;28;20120;-77
2023/07/07 04:03:33;;;;;;;3.67;1.17;;;15.90;99.90;;;;;;5047965;28;20047;-77
2023/07/07 04:06:00;;;;;;;9.05;1.50;;;16.00;99.90;;;;;;5024644;28;20037;-77
2023/07/07 04:08:26;;;;;;;2.55;1.30;;;16.00;99.90;;;;;;5048249;28;20033;-78
2023/07/07 04:11:06;;;;;;;2.30;1.00;;;15.90;99.90;;;;;;5033930;28;20033;-77
2023/07/07 04:13:35;;;;;;;2.65;1.30;;;16.00;99.90;;;;;;5031351;28;20064;-78
2023/07/07 04:16:04;;;;;;;2.22;1.27;;;15.90;99.90;;;;;;5041056;28;20033;-78
2023/07/07 04:18:33;;;;;;;2.17;1.08;;;16.00;99.90;;;;;;5031570;28;20071;-78
2023/07/07 04:21:11;;;;;;;2.42;1.27;;;16.00;99.90;;;;;;5043952;28;20025;-78
2023/07/07 04:23:40;;;;;;;2.47;1.40;;;16.00;99.90;;;;;;5047840;28;20040;-78
2023/07/07 04:26:07;;;;;;;2.50;1.45;;;16.00;99.90;;;;;;5042190;28;20079;-77
2023/07/07 04:28:37;;;;;;;5.28;1.63;;;15.90;99.90;;;;;;5049373;28;20028;-77
2023/07/07 04:31:06;;;;;;;1.85;1.20;;;16.00;99.90;;;;;;5032960;28;20407;-76
2023/07/07 04:33:33;;;;;;;3.13;1.13;;;16.00;99.90;;;;;;5031216;28;20036;-76
2023/07/07 04:36:03;;;;;;;4.40;1.13;;;16.10;99.90;;;;;;5049941;28;20029;-77
2023/07/07 04:38:30;;;;;;;2.78;1.63;;;16.00;99.90;;;;;;5031250;28;20033;-77
2023/07/07 04:41:12;;;;;;;3.10;1.15;;;16.10;99.90;;;;;;5028910;28;20143;-78
2023/07/07 04:43:59;;;;;;;;;;;16.10;99.90;;;;;;5030629;28;20720;-78
2023/07/07 04:46:37;;;;;;;8.38;1.65;;;16.10;99.90;;;;;;5043514;28;20004;-78
2023/07/07 04:49:08;;;;;;;2.20;1.35;;;16.10;99.90;;;;;;5030232;28;20060;-76
2023/07/07 04:51:39;;;;;;;2.47;1.17;;;16.20;99.90;;;;;;5042061;28;20495;-60
2023/07/07 04:54:09;;;;;;;3.58;1.23;;;16.20;99.90;;;;;;5048117;28;20069;-60
2023/07/07 04:56:35;;;;;;;3.47;1.17;;;16.30;99.90;;;;;;5028470;28;20087;-60
2023/07/07 04:59:03;;;;;;;5.45;1.27;;;16.40;99.90;;;;;;5039916;28;20033;-59
2023/07/07 05:01:30;;;;;;;3.05;1.13;;;16.50;99.90;;;;;;5040035;28;20505;-60
2023/07/07 05:04:00;;;;;;;1.92;0.93;;;16.60;99.90;;;;;;5047576;28;20025;-58
2023/07/07 05:06:31;;;;;;;2.42;1.13;;;16.80;99.90;;;;;;5045661;28;20043;-60
2023/07/07 05:08:57;;;;;;;3.42;1.30;;;16.90;99.90;;;;;;5026864;28;20045;-59
2023/07/07 05:11:28;;;;;;;2.65;1.30;;;16.80;99.90;;;;;;5049841;28;20307;-59
2023/07/07 05:13:54;;;;;;;4.43;1.38;;;16.80;99.90;;;;;;5048825;28;20485;-60
2023/07/07 05:16:27;;;;;;;1.95;0.77;;;16.80;99.90;;;;;;5044396;28;20029;-61
2023/07/07 05:18:53;;;;;;;4.35;1.60;;;16.80;99.90;;;;;;5048977;28;20072;-57
2023/07/07 05:21:22;;;;;;;2.38;1.25;;;16.80;99.90;;;;;;5049351;28;20056;-61
2023/07/07 05:23:51;;;;;;;4.22;1.40;;;16.80;99.90;;;;;;5048878;28;20025;-59
2023/07/07 05:26:19;;;;;;;4.38;1.42;;;16.80;99.90;;;;;;5041597;28;20028;-59
2023/07/07 05:28:44;;;;;;;2.50;1.27;;;16.70;99.90;;;;;;5048873;28;20057;-60
2023/07/07 05:31:10;;;;;;;2.85;1.05;;;16.70;99.90;;;;;;5052531;28;20071;-60
2023/07/07 05:33:38;;;;;;;2.40;0.82;;;16.80;99.90;;;;;;5052374;28;20365;-58
2023/07/07 05:36:08;;;;;;;2.95;1.65;;;16.80;99.90;;;;;;5053246;28;20116;-61
2023/07/07 05:38:34;;;;;;;4.80;1.40;;;16.80;99.90;;;;;;5050970;28;20041;-55
2023/07/07 05:41:00;;;;;;;4.43;1.27;;;16.90;99.90;;;;;;5045903;28;20028;-59
2023/07/07 05:43:26;;;;;;;5.25;1.58;;;16.90;99.90;;;;;;5051678;28;20025;-58
2023/07/07 05:45:58;;;;;;;3.50;1.23;;;17.00;99.90;;;;;;5049558;28;20128;-59
2023/07/07 05:48:24;;;;;;;3.30;1.42;;;17.00;99.90;;;;;;5032901;28;20072;-59
2023/07/07 05:50:52;;;;;;;3.80;1.48;;;17.20;99.90;;;;;;5039974;28;20120;-59
2023/07/07 05:53:18;;;;;;;2.55;0.93;;;17.30;99.90;;;;;;5032695;28;20045;-56
2023/07/07 05:55:46;;;;;;;3.80;1.52;;;17.40;99.90;;;;;;5050040;28;20067;-59
2023/07/07 05:58:15;;;;;;;2.03;1.40;;;17.50;99.90;;;;;;5053247;28;20455;-59
2023/07/07 06:00:41;;;;;;;3.88;1.75;;;17.60;99.90;;;;;;5047412;28;20520;-60
2023/07/07 06:03:06;;;;;;;3.90;1.50;;;17.70;99.90;;;;;;5050482;28;20033;-56
2023/07/07 06:05:33;;;;;;;1.77;1.05;;;17.70;99.90;;;;;;5042963;28;20033;-59
2023/07/07 06:08:00;;;;;;;3.80;1.00;;;17.80;99.90;;;;;;5048158;28;20116;-60
2023/07/07 06:10:27;;;;;;;2.53;1.52;;;17.90;99.90;;;;;;5032057;28;20033;-60
2023/07/07 06:12:53;;;;;;;3.83;1.25;;;17.90;99.90;;;;;;5042807;28;20340;-61
2023/07/07 06:15:19;;;;;;;2.05;1.13;;;18.00;99.90;;;;;;5052133;28;20059;-54
2023/07/07 06:17:45;;;;;;;3.70;1.20;;;18.10;99.90;;;;;;5052439;28;20040;-51
2023/07/07 06:20:13;;;;;;;3.00;1.77;;;18.10;99.90;;;;;;5051363;28;20037;-55
2023/07/07 06:22:38;;;;;;;4.93;1.52;;;18.20;99.90;;;;;;5051746;28;20031;-48
2023/07/07 06:25:05;;;;;;;2.03;1.23;;;18.20;99.90;;;;;;5051379;28;20553;-55
2023/07/07 06:27:31;;;;;;;2.92;1.15;;;18.40;99.90;;;;;;5042831;28;20023;-54
2023/07/07 06:29:57;;;;;;;3.83;0.90;;;18.50;99.90;;;;;;5048587;28;20021;-53
2023/07/07 06:32:23;;;;;;;2.50;1.02;;;18.70;99.90;;;;;;5042302;28;20041;-56
2023/07/07 06:34:49;;;;;;;3.88;1.50;;;18.80;99.90;;;;;;5049310;28;20037;-53
2023/07/07 06:37:16;;;;;;;2.38;1.10;;;18.90;99.90;;;;;;5042831;28;20028;-54
2023/07/07 06:39:42;;;;;;;2.28;1.10;;;18.90;99.90;;;;;;5050936;28;20393;-55
2023/07/07 06:42:09;;;;;;;2.42;1.10;;;19.10;99.90;;;;;;5051438;28;20037;-54
2023/07/07 06:44:37;;;;;;;1.70;1.08;;;19.10;99.90;;;;;;5050515;28;20033;-55
2023/07/07 06:47:05;;;;;;;2.60;1.35;;;19.30;99.90;;;;;;5044229;28;20114;-56
2023/07/07 06:49:31;;;;;;;1.98;0.98;;;19.50;99.90;;;;;;5050509;28;20029;-53
2023/07/07 06:51:57;;;;;;;1.90;0.95;;;19.70;99.50;;;;;;5051470;28;20032;-54
2023/07/07 06:54:22;;;;;;;3.08;1.48;;;19.80;99.30;;;;;;5050586;28;20080;-54
2023/07/07 06:56:48;;;;;;;10.88;1.15;;;19.90;99.30;;;;;;5051542;28;20032;-55
2023/07/07 06:59:14;;;;;;;2.33;1.25;;;19.90;99.00;;;;;;5051278;28;20025;-52
2023/07/07 07:01:40;;;;;;;5.63;1.42;;;20.00;98.80;;;;;;5050360;28;20033;-54
2023/07/07 07:04:06;;;;;;;5.57;1.08;;;20.10;98.60;;;;;;5050976;28;20051;-55
2023/07/07 07:06:31;;;;;;;6.55;1.77;;;20.20;98.60;;;;;;5050033;28;20413;-53
2023/07/07 07:08:57;;;;;;;10.93;0.93;;;20.20;98.40;;;;;;5047142;28;20041;-53
2023/07/07 07:11:23;;;;;;;3.13;1.33;;;20.40;98.50;;;;;;5049017;28;20033;-52
2023/07/07 07:13:49;;;;;;;2.65;1.20;;;20.50;98.30;;;;;;5051078;28;20045;-50
2023/07/07 07:16:15;;;;;;;2.97;1.23;;;20.60;97.40;;;;;;5050498;28;20032;-77
2023/07/07 07:18:40;;;;;;;3.80;1.00;;;20.70;97.40;;;;;;5043899;28;20041;-77
2023/07/07 07:21:06;;;;;;;1.63;0.90;;;20.90;96.80;;;;;;5044491;28;20461;-77
2023/07/07 07:23:32;;;;;;;4.55;1.13;;;20.90;96.80;;;;;;5044174;28;20036;-76
2023/07/07 07:25:57;;;;;;;2.33;1.30;;;21.00;96.60;;;;;;5050585;28;20033;-75
2023/07/07 07:28:23;;;;;;;9.90;1.50;;;21.00;96.60;;;;;;5050514;28;20043;-74
2023/07/07 07:30:49;;;;;;;2.03;1.00;;;21.10;96.90;;;;;;5044941;28;20127;-74
2023/07/07 07:33:22;;;;;;;2.80;1.08;;;21.20;96.20;;;;;;5050384;28;20090;-74
2023/07/07 07:35:48;;;;;;;3.05;1.05;;;21.30;95.80;;;;;;5021436;28;20037;-73
2023/07/07 07:38:16;;;;;;;3.80;1.30;;;21.50;95.70;;;;;;5050438;28;20052;-73
2023/07/07 07:40:42;;;;;;;6.30;1.88;;;21.60;95.90;;;;;;5040035;28;20037;-73
2023/07/07 07:43:08;;;;;;;1.98;1.00;;;21.80;95.60;;;;;;5046699;28;20036;-74
2023/07/07 07:45:35;;;;;;;2.50;1.05;;;21.80;95.40;;;;;;5032480;28;20052;-73
2023/07/07 07:48:02;;;;;;;1.52;1.00;;;21.90;95.00;;;;;;5038827;28;20026;-73
2023/07/07 07:50:28;;;;;;;3.92;1.38;;;21.90;94.80;;;;;;5043193;28;20061;-74
2023/07/07 07:52:55;;;;;;;5.43;1.00;;;22.10;95.00;;;;;;5046737;28;20504;-73
2023/07/07 07:55:21;;;;;;;4.00;1.50;;;22.10;94.80;;;;;;5049997;28;20056;-73
2023/07/07 07:57:47;;;;;;;3.30;1.15;;;22.20;94.50;;;;;;5044674;28;20033;-74
2023/07/07 08:00:15;;;;;;;1.75;0.95;;;22.30;94.00;;;;;;5047889;28;20080;-72
2023/07/07 08:02:41;;;;;;;2.33;1.00;;;22.30;93.70;;;;;;5049965;28;20112;-72
2023/07/07 08:05:07;;;;;;;2.13;1.10;;;22.30;93.80;;;;;;5049842;28;20194;-72
2023/07/07 08:07:33;;;;;;;1.67;0.77;;;22.40;94.10;;;;;;5050444;28;20028;-74
2023/07/07 08:09:59;;;;;;;2.95;0.93;;;22.70;94.00;;;;;;5049543;28;20029;-74
2023/07/07 08:12:25;;;;;;;3.10;1.35;;;22.80;93.90;;;;;;5047554;28;20031;-73
2023/07/07 08:14:51;;;;;;;1.60;0.80;;;22.80;93.60;;;;;;5045103;28;20033;-73
2023/07/07 08:17:17;;;;;;;3.83;1.70;;;22.90;93.70;;;;;;5040948;28;20036;-73
2023/07/07 08:19:46;;;;;;;2.45;0.90;;;22.90;93.20;;;;;;5033339;28;20029;-73
2023/07/07 08:22:18;;;;;;;3.03;1.55;;;23.20;92.90;;;;;;5037890;28;20116;-73
2023/07/07 08:24:48;;;;;;;2.03;1.15;;;23.30;92.80;;;;;;5050131;28;20067;-73
2023/07/07 08:27:16;;;;;;;1.37;0.90;;;23.50;92.30;;;;;;5049294;28;20021;-73
2023/07/07 08:29:42;;;;;;;2.05;1.02;;;23.60;91.70;;;;;;5050123;28;20279;-73
2023/07/07 08:32:12;;;;;;;3.03;1.52;;;23.60;91.70;;;;;;5039997;28;20067;-73
2023/07/07 08:34:39;;;;;;;3.10;1.40;;;23.70;91.60;;;;;;5043210;28;20028;-73
2023/07/07 08:37:05;;;;;;;4.28;1.05;;;23.80;91.20;;;;;;5039964;28;20889;-73
2023/07/07 08:39:31;;;;;;;3.13;1.08;;;23.80;90.80;;;;;;5049873;28;20476;-73
2023/07/07 08:42:30;;;;;;;2.47;1.05;;;23.90;90.70;;;;;;5049011;28;20090;-68
2023/07/07 08:44:59;;;;;;;2.17;0.90;;;23.90;90.60;;;;;;5049101;28;20021;-68
2023/07/07 08:47:43;;;;;;;5.57;3.30;;;23.90;90.40;;;;;;5036458;28;20031;-69
2023/07/07 08:50:38;;;;;;;6.20;1.10;;;24.10;90.20;;;;;;5048846;28;20041;-70
2023/07/07 08:53:30;;;;;;;2.25;1.00;;;24.10;90.10;;;;;;5047583;28;20144;-70
2023/07/07 08:56:22;;;;;;;4.25;1.20;;;24.40;90.00;;;;;;5048519;28;20040;-69
2023/07/07 08:59:45;;;;;;;3.70;1.00;;;24.30;89.20;;;;;;5049386;28;20063;-69
2023/07/07 09:03:09;;;;;;;2.83;1.10;;;24.50;88.80;;;;;;5040398;28;20037;-71
2023/07/07 09:06:21;;;;;;;3.05;1.38;;;24.60;88.70;;;;;;5021372;28;20091;-69
2023/07/07 09:09:08;;;;;;;2.95;1.30;;;24.70;88.40;;;;;;5051324;28;20111;-71
2023/07/07 09:11:39;;;;;;;2.78;1.65;;;24.90;87.80;;;;;;5052305;28;20040;-72
2023/07/07 09:14:08;;;;;;;2.47;1.30;;;24.90;86.60;;;;;;5038285;28;20037;-70
2023/07/07 09:16:37;;;;;;;4.75;1.52;;;25.10;87.00;;;;;;5032766;28;20519;-70
2023/07/07 09:19:12;;;;;;;6.90;1.23;;;25.30;85.90;;;;;;5038617;28;20037;-70
2023/07/07 09:21:50;;;;;;;3.10;1.30;;;25.20;85.20;;;;;;5037629;28;20089;-67
2023/07/07 09:24:43;;;;;;;1.85;0.93;;;25.30;85.20;;;;;;5034582;28;20029;-75
2023/07/07 09:27:23;;;;;;;3.58;1.08;;;25.40;84.20;;;;;;5052448;28;20132;-69
2023/07/07 09:29:57;;;;;;;4.78;2.38;;;25.70;84.60;;;;;;5027204;28;20057;-72
2023/07/07 09:32:23;;;;;;;2.63;1.10;;;25.80;83.30;;;;;;5025356;28;20029;-69
2023/07/07 09:34:49;;;;;;;3.53;1.58;;;26.10;81.50;;;;;;5041468;28;20114;-71
2023/07/07 09:37:45;;;;;;;3.53;1.52;;;26.10;80.70;;;;;;5034592;28;20043;-69
2023/07/07 09:40:58;;;;;;;3.92;1.30;;;26.20;80.70;;;;;;5018929;28;20049;-70
2023/07/07 09:44:15;;;;;;;3.00;1.35;;;26.20;79.90;;;;;;5032611;28;20040;-72
2023/07/07 09:47:22;;;;;;;3.35;1.45;;;26.20;79.30;;;;;;5025229;28;20037;-72
2023/07/07 09:49:58;;;;;;;6.65;1.60;;;26.50;79.80;;;;;;5051976;28;20086;-75
2023/07/07 09:52:54;;;;;;;7.85;1.40;;;26.80;78.70;;;;;;5052749;28;20033;-69
2023/07/07 09:55:27;;;;;;;3.45;1.33;;;26.80;79.30;;;;;;5021334;28;20036;-71
2023/07/07 09:58:07;;;;;;;3.00;1.17;;;27.20;77.60;;;;;;5043286;22;20045;-69
2023/07/07 10:00:35;;;;;;;3.72;1.45;;;27.20;77.60;;;;;;5016679;28;20037;-68
2023/07/07 10:03:13;;;;;;;3.78;1.50;;;27.20;77.40;;;;;;5028478;28;20025;-73
2023/07/07 10:05:40;;;;;;;3.22;1.08;;;27.60;76.50;;;;;;5029994;28;20120;-69
2023/07/07 10:08:11;;;;;;;7.43;1.80;;;27.70;76.40;;;;;;5031380;28;20021;-71
2023/07/07 10:10:37;;;;;;;1.88;1.10;;;27.70;76.30;;;;;;5009084;28;20427;-74
2023/07/07 10:13:02;;;;;;;5.25;1.67;;;27.70;75.40;;;;;;5029059;28;20041;-74
2023/07/07 10:15:54;;;;;;;2.88;1.30;;;27.60;75.60;;;;;;5033164;28;20524;-71
2023/07/07 10:18:24;;;;;;;3.22;1.40;;;27.70;75.60;;;;;;5019242;28;20087;-72
2023/07/07 10:21:01;;;;;;;3.40;1.58;;;28.00;75.20;;;;;;4989868;28;20037;-72
2023/07/07 10:23:30;;;;;;;4.07;1.77;;;28.10;74.40;;;;;;5018659;28;20022;-71
2023/07/07 10:25:56;;;;;;;2.55;1.35;;;28.50;74.20;;;;;;5037016;28;20407;-72
2023/07/07 10:28:24;;;;;;;6.70;1.90;;;28.70;73.60;;;;;;5027719;28;20025;-72
2023/07/07 10:30:51;;;;;;;2.97;1.40;;;28.70;71.80;;;;;;5015642;28;20034;-72
2023/07/07 10:33:21;;;;;;;3.35;1.45;;;28.70;72.10;;;;;;5014306;28;20033;-72
2023/07/07 10:35:48;;;;;;;6.78;1.70;;;28.90;71.70;;;;;;5000819;28;20159;-71
2023/07/07 10:38:14;;;;;;;5.50;1.25;;;29.40;71.80;;;;;;5012256;28;20037;-69
2023/07/07 10:40:42;;;;;;;6.30;1.88;;;29.20;70.00;;;;;;5023912;28;20216;-71
2023/07/07 10:43:15;;;;;;;4.30;2.05;;;29.30;69.80;;;;;;5020808;28;20388;-71
2023/07/07 10:45:45;;;;;;;3.17;1.55;;;29.30;69.00;;;;;;5027252;28;20100;-72
2023/07/07 10:48:15;;;;;;;4.43;1.77;;;29.30;68.10;;;;;;5007433;28;20022;-70
2023/07/07 10:50:57;;;;;;;4.95;1.55;;;29.40;69.00;;;;;;5008870;28;20041;-72
2023/07/07 10:53:59;;;;;;;6.35;1.88;;;29.20;68.50;;;;;;5019521;28;20037;-72
2023/07/07 10:56:32;;;;;;;5.07;1.88;;;29.00;66.70;;;;;;5026659;28;20040;-72
2023/07/07 10:59:24;;;;;;;5.00;2.42;;;29.10;67.00;;;;;;5018508;28;20052;-72
2023/07/07 11:02:05;;;;;;;4.25;1.92;;;28.90;69.40;;;;;;5013594;28;20034;-74
2023/07/07 11:05:05;;;;;;;3.90;1.77;;;29.30;66.00;;;;;;5011573;28;20022;-72
2023/07/07 11:08:02;;;;;;;6.38;2.17;;;29.50;64.10;;;;;;5008768;28;20033;-74
2023/07/07 11:10:40;;;;;;;5.40;1.58;;;29.40;65.00;;;;;;4995036;28;20059;-72
2023/07/07 11:13:33;;;;;;;3.78;1.95;;;29.60;64.30;;;;;;5024460;28;20148;-73
2023/07/07 11:16:38;;;;;;;9.07;2.65;;;29.40;64.40;;;;;;5028643;28;20025;-73
2023/07/07 11:19:37;;;;;;;5.70;1.65;;;29.70;65.00;;;;;;5027714;28;20048;-72
2023/07/07 11:22:25;;;;;;;5.53;2.00;;;30.00;63.80;;;;;;4976302;28;20060;-72
2023/07/07 11:25:12;;;;;;;3.92;1.60;;;29.80;63.60;;;;;;5030020;28;20389;-73
2023/07/07 11:28:21;;;;;;;4.70;2.05;;;30.30;63.70;;;;;;5010826;28;20060;-72
2023/07/07 11:31:02;;;;;;;6.45;1.88;;;30.90;63.70;;;;;;5011388;28;20770;-74
2023/07/07 11:33:59;;;;;;;7.15;3.05;;;31.00;62.20;;;;;;5011476;28;20508;-76
2023/07/07 11:36:59;;;;;;;5.00;2.10;;;30.80;60.30;;;;;;5011130;28;20034;-78
2023/07/07 11:39:48;;;;;;;4.97;2.17;;;30.80;59.60;;;;;;5016482;28;20101;-72
2023/07/07 11:43:11;;;;;;;5.53;3.00;;;31.10;59.30;;;;;;4983802;28;20049;-76
2023/07/07 11:46:19;;;;;;;4.55;2.10;;;31.30;59.60;;;;;;5029705;28;20577;-75
2023/07/07 11:49:13;;;;;;;5.18;2.15;;;31.10;58.80;;;;;;5019968;28;20125;-76
2023/07/07 11:51:47;;;;;;;4.43;1.98;;;31.20;58.80;;;;;;5029097;28;20042;-75
2023/07/07 11:54:51;;;;;;;4.32;1.88;;;31.50;59.10;;;;;;5029350;28;20033;-76
2023/07/07 11:57:59;;;;;;;4.20;1.92;;;31.50;58.40;;;;;;5025207;28;20029;-75
2023/07/07 12:00:50;;;;;;;4.15;2.20;;;31.60;57.80;;;;;;5000977;28;20050;-68
2023/07/07 12:03:38;;;;;;;5.30;2.30;;;31.20;57.20;;;;;;5021789;28;20473;-66
2023/07/07 12:06:17;;;;;;;5.07;2.00;;;30.50;57.40;;;;;;5028674;28;20071;-67
2023/07/07 12:09:10;;;;;;;5.15;2.08;;;31.30;57.10;;;;;;5027568;28;20041;-68
2023/07/07 12:11:46;;;;;;;6.07;1.90;;;31.50;56.50;;;;;;5000233;28;20046;-69
2023/07/07 12:14:39;;;;;;;6.20;3.00;;;32.10;56.60;;;;;;5028657;28;20037;-67
2023/07/07 12:17:09;;;;;;;5.80;1.88;;;32.30;55.70;;;;;;5027139;28;20298;-68
2023/07/07 12:19:52;;;;;;;9.18;2.70;;;32.30;54.80;;;;;;5030699;28;20033;-68
2023/07/07 12:22:28;;;;;;;6.00;2.47;;;32.70;55.20;;;;;;5013271;28;20442;-68
2023/07/07 12:25:25;;;;;;;5.50;2.05;;;32.60;54.20;;;;;;5009451;28;20044;-68
2023/07/07 12:27:52;;;;;;;6.95;2.15;;;32.60;53.80;;;;;;5011632;28;20032;-68
2023/07/07 12:30:31;;;;;;;6.60;2.28;;;32.40;53.90;;;;;;5022195;28;20055;-68
2023/07/07 12:32:58;;;;;;;7.15;3.05;;;32.40;53.20;;;;;;5018937;28;20068;-69
2023/07/07 12:35:47;;;;;;;5.40;1.92;;;32.40;53.90;;;;;;4999877;28;20025;-69
2023/07/07 12:38:27;;;;;;;6.90;2.75;;;32.90;52.30;;;;;;5011357;28;20528;-68
2023/07/07 12:40:55;;;;;;;;;;;32.70;52.70;;;;;;4996493;28;20042;-69
2023/07/07 12:43:43;;;;;;;7.53;2.90;;;32.50;51.00;;;;;;4993296;28;19913;-69
2023/07/07 12:46:30;;;;;;;6.68;2.63;;;31.80;51.00;;;;;;5027562;28;20021;-67
2023/07/07 12:48:59;;;;;;;9.43;2.65;;;32.60;52.60;;;;;;5026161;28;20400;-66
2023/07/07 12:51:32;;;;;;;5.25;2.25;;;33.10;50.70;;;;;;4991257;28;20018;-66
2023/07/07 12:53:57;;;;;;;6.32;2.50;;;33.50;50.40;;;;;;5025153;28;20025;-69
2023/07/07 12:56:29;;;;;;;6.40;2.60;;;34.00;49.70;;;;;;5010438;28;20472;-67
2023/07/07 12:59:01;;;;;;;7.47;2.60;;;34.00;49.40;;;;;;5017766;28;20033;-66
2023/07/07 13:01:35;;;;;;;14.35;3.22;;;33.80;49.00;;;;;;4999322;28;20032;-67
2023/07/07 13:04:07;;;;;;;6.22;2.30;;;33.60;49.30;;;;;;5017190;28;20040;-66
2023/07/07 13:06:57;;;;;;;7.85;2.53;;;33.30;49.80;;;;;;5015914;28;20116;-66
2023/07/07 13:09:28;;;;;;;7.38;2.88;;;33.40;49.30;;;;;;5023940;28;20033;-65
2023/07/07 13:11:57;;;;;;;6.38;2.85;;;33.10;48.80;;;;;;5037278;28;20116;-67
2023/07/07 13:14:32;;;;;;;7.82;2.50;;;33.40;48.30;;;;;;5016913;28;20397;-67
2023/07/07 13:17:03;;;;;;;6.25;2.60;;;33.70;47.10;;;;;;5030505;28;20052;-67
2023/07/07 13:19:31;;;;;;;10.80;2.67;;;34.10;46.90;;;;;;5017823;28;20026;-68
2023/07/07 13:22:01;;;;;;;4.78;2.58;;;33.70;47.40;;;;;;5007900;28;20108;-68